createdAt,value
2019-03-17T00:00:00.904Z,53.93
2019-03-17T00:02:30.379Z,54.16
2019-03-17T00:04:59.867Z,54.30
2019-03-17T00:07:29.340Z,54.50
2019-03-17T00:09:58.838Z,54.87
2019-03-17T00:12:31.296Z,54.82
2019-03-17T00:15:05.020Z,54.98
2019-03-17T00:17:30.805Z,54.96
2019-03-17T00:20:00.400Z,55.04
2019-03-17T00:22:30.106Z,55.09
2019-03-17T00:25:08.586Z,55.25
2019-03-17T00:27:30.772Z,55.47
2019-03-17T00:30:00.482Z,55.62
2019-03-17T00:32:30.018Z,55.81
2019-03-17T00:34:59.527Z,55.91
2019-03-17T00:37:29.006Z,55.85
2019-03-17T00:39:58.522Z,56.07
2019-03-17T00:42:28.028Z,56.10
2019-03-17T00:44:59.731Z,55.86
2019-03-17T00:47:29.229Z,56.25
2019-03-17T00:49:58.742Z,56.21
2019-03-17T00:52:28.268Z,56.25
2019-03-17T00:54:58.719Z,56.46
2019-03-17T00:57:28.170Z,56.50
2019-03-17T00:59:57.670Z,56.69
2019-03-17T01:02:27.129Z,56.70
2019-03-17T01:04:56.746Z,56.78
2019-03-17T01:07:26.197Z,56.61
2019-03-17T01:09:55.678Z,56.49
2019-03-17T01:12:25.222Z,56.74
2019-03-17T01:14:54.700Z,56.86
2019-03-17T01:17:24.276Z,56.93
2019-03-17T01:19:53.764Z,56.18
2019-03-17T01:22:23.246Z,56.81
2019-03-17T01:24:52.790Z,57.10
2019-03-17T01:27:22.270Z,57.21
2019-03-17T01:29:51.751Z,57.49
2019-03-17T01:32:21.201Z,57.56
2019-03-17T01:34:50.739Z,57.67
2019-03-17T01:37:20.218Z,57.80
2019-03-17T01:39:49.692Z,57.75
2019-03-17T01:42:19.179Z,57.88
2019-03-17T01:44:48.643Z,58.14
2019-03-17T01:47:18.128Z,58.42
2019-03-17T01:49:47.597Z,58.31
2019-03-17T01:52:17.091Z,58.53
2019-03-17T01:54:46.562Z,58.91
2019-03-17T01:57:16.022Z,59.15
2019-03-17T01:59:45.471Z,59.13
2019-03-17T02:02:14.974Z,59.16
2019-03-17T02:04:44.438Z,58.91
2019-03-17T02:07:13.922Z,59.25
2019-03-17T02:09:43.366Z,59.33
2019-03-17T02:12:12.875Z,59.46
2019-03-17T02:14:42.451Z,59.56
2019-03-17T02:17:11.892Z,59.52
2019-03-17T02:19:41.379Z,59.53
2019-03-17T02:22:10.841Z,59.56
2019-03-17T02:24:40.325Z,59.70
2019-03-17T02:27:09.780Z,59.81
2019-03-17T02:29:39.255Z,59.92
2019-03-17T02:32:08.802Z,60.12
2019-03-17T02:34:38.263Z,60.13
2019-03-17T02:37:07.775Z,60.03
2019-03-17T02:39:37.256Z,59.88
2019-03-17T02:42:06.748Z,59.79
2019-03-17T02:44:36.217Z,59.60
2019-03-17T02:47:05.727Z,59.21
2019-03-17T02:49:35.218Z,58.83
2019-03-17T02:52:04.707Z,58.96
2019-03-17T02:54:34.240Z,58.82
2019-03-17T02:57:03.709Z,58.80
2019-03-17T02:59:33.190Z,58.87
2019-03-17T03:02:02.665Z,58.91
2019-03-17T03:04:32.131Z,58.86
2019-03-17T03:07:01.599Z,58.73
2019-03-17T03:09:31.176Z,58.52
2019-03-17T03:12:00.679Z,58.47
2019-03-17T03:14:30.174Z,58.53
2019-03-17T03:16:59.667Z,59.00
2019-03-17T03:19:29.134Z,59.65
2019-03-17T03:21:58.595Z,60.24
2019-03-17T03:24:28.041Z,60.70
2019-03-17T03:26:57.534Z,60.98
2019-03-17T03:29:27.493Z,60.96
2019-03-17T03:31:57.073Z,60.77
2019-03-17T03:34:26.546Z,60.89
2019-03-17T03:36:56.027Z,60.95
2019-03-17T03:39:25.520Z,61.13
2019-03-17T03:41:54.967Z,61.26
2019-03-17T03:44:24.480Z,61.41
2019-03-17T03:46:53.977Z,61.37
2019-03-17T03:49:23.471Z,61.60
2019-03-17T03:51:52.941Z,61.98
2019-03-17T03:54:22.421Z,62.22
2019-03-17T03:56:51.855Z,62.18
2019-03-17T03:59:21.316Z,62.01
2019-03-17T04:01:50.834Z,61.88
2019-03-17T04:04:20.382Z,61.70
2019-03-17T04:06:49.902Z,61.35
2019-03-17T04:09:19.369Z,60.83
2019-03-17T04:11:48.870Z,59.93
2019-03-17T04:14:18.346Z,59.27
2019-03-17T04:16:47.895Z,58.95
2019-03-17T04:19:17.412Z,58.79
2019-03-17T04:21:46.830Z,58.48
2019-03-17T04:24:16.305Z,58.01
2019-03-17T04:26:45.754Z,57.58
2019-03-17T04:29:15.225Z,57.35
2019-03-17T04:31:44.698Z,57.19
2019-03-17T04:34:14.207Z,57.30
2019-03-17T04:36:43.738Z,57.38
2019-03-17T04:39:13.246Z,57.92
2019-03-17T04:41:42.721Z,58.87
2019-03-17T04:44:20.775Z,59.51
2019-03-17T04:46:43.424Z,60.13
2019-03-17T04:49:12.898Z,60.80
2019-03-17T04:51:42.357Z,61.57
2019-03-17T04:54:11.845Z,62.06
2019-03-17T04:56:41.311Z,62.40
2019-03-17T04:59:10.800Z,62.49
2019-03-17T05:01:40.326Z,62.69
2019-03-17T05:04:09.777Z,62.57
2019-03-17T05:06:47.886Z,62.61
2019-03-17T05:09:10.461Z,62.39
2019-03-17T05:11:39.926Z,62.47
2019-03-17T05:14:09.372Z,62.32
2019-03-17T05:16:38.883Z,62.21
2019-03-17T05:19:08.388Z,62.30
2019-03-17T05:21:37.875Z,62.31
2019-03-17T05:24:07.376Z,62.30
2019-03-17T05:26:36.833Z,62.30
2019-03-17T05:29:06.372Z,62.05
2019-03-17T05:31:35.865Z,62.07
2019-03-17T05:34:05.348Z,61.54
2019-03-17T05:36:34.854Z,61.72
2019-03-17T05:39:05.771Z,61.58
2019-03-17T05:41:35.277Z,61.17
2019-03-17T05:44:04.747Z,61.08
2019-03-17T05:46:34.251Z,60.87
2019-03-17T05:49:03.764Z,60.81
2019-03-17T05:51:33.341Z,60.53
2019-03-17T05:54:02.836Z,60.15
2019-03-17T05:56:32.427Z,60.02
2019-03-17T05:59:02.320Z,59.87
2019-03-17T06:01:31.819Z,59.56
2019-03-17T06:04:01.294Z,59.29
2019-03-17T06:06:30.868Z,58.88
2019-03-17T06:09:00.307Z,58.58
2019-03-17T06:11:29.786Z,58.31
2019-03-17T06:13:59.292Z,58.00
2019-03-17T06:16:28.785Z,57.95
2019-03-17T06:18:58.421Z,57.57
2019-03-17T06:21:27.931Z,57.43
2019-03-17T06:23:57.432Z,57.01
2019-03-17T06:26:26.945Z,56.53
2019-03-17T06:28:56.488Z,56.00
2019-03-17T06:31:25.982Z,56.34
2019-03-17T06:33:55.457Z,56.11
2019-03-17T06:36:24.924Z,55.36
2019-03-17T06:38:54.492Z,54.95
2019-03-17T06:41:24.025Z,55.38
2019-03-17T06:43:53.635Z,54.41
2019-03-17T06:46:23.136Z,54.17
2019-03-17T06:48:52.655Z,54.43
2019-03-17T06:51:22.142Z,53.72
2019-03-17T06:53:56.650Z,53.34
2019-03-17T06:56:23.367Z,53.36
2019-03-17T06:58:52.899Z,52.90
2019-03-17T07:01:22.426Z,52.47
2019-03-17T07:03:51.895Z,52.20
2019-03-17T07:06:21.433Z,51.86
2019-03-17T07:08:50.911Z,51.77
2019-03-17T07:11:20.417Z,51.47
2019-03-17T07:13:49.921Z,51.15
2019-03-17T07:16:19.463Z,50.54
2019-03-17T07:18:49.004Z,50.41
2019-03-17T07:21:18.521Z,49.88
2019-03-17T07:23:48.008Z,49.70
2019-03-17T07:26:17.560Z,49.53
2019-03-17T07:28:47.061Z,49.13
2019-03-17T07:31:16.591Z,48.80
2019-03-17T07:33:46.267Z,48.58
2019-03-17T07:36:15.916Z,48.34
2019-03-17T07:38:45.413Z,48.41
2019-03-17T07:41:14.936Z,48.32
2019-03-17T07:43:44.491Z,48.09
2019-03-17T07:46:14.005Z,47.99
2019-03-17T07:48:43.572Z,47.83
2019-03-17T07:51:13.164Z,47.24
2019-03-17T07:53:42.639Z,47.09
2019-03-17T07:56:12.116Z,47.00
2019-03-17T07:58:41.621Z,47.07
2019-03-17T08:01:11.139Z,46.83
2019-03-17T08:03:40.645Z,46.43
2019-03-17T08:06:10.136Z,46.35
2019-03-17T08:08:39.767Z,46.09
2019-03-17T08:11:09.255Z,45.87
2019-03-17T08:13:38.774Z,45.49
2019-03-17T08:16:08.285Z,45.44
2019-03-17T08:18:37.793Z,45.07
2019-03-17T08:21:07.296Z,45.08
2019-03-17T08:23:36.772Z,44.98
2019-03-17T08:26:06.293Z,44.92
2019-03-17T08:28:35.840Z,44.63
2019-03-17T08:31:05.346Z,44.66
2019-03-17T08:33:34.865Z,44.61
2019-03-17T08:36:04.449Z,44.33
2019-03-17T08:38:33.949Z,44.31
2019-03-17T08:41:03.456Z,44.44
2019-03-17T08:43:33.323Z,43.96
2019-03-17T08:46:02.832Z,43.83
2019-03-17T08:48:32.343Z,43.85
2019-03-17T08:51:01.862Z,43.60
2019-03-17T08:53:31.342Z,43.47
2019-03-17T08:56:00.844Z,43.23
2019-03-17T08:58:30.330Z,43.12
2019-03-17T09:00:59.848Z,42.86
2019-03-17T09:03:29.339Z,42.54
2019-03-17T09:05:58.812Z,42.51
2019-03-17T09:08:34.761Z,42.31
2019-03-17T09:10:59.581Z,42.24
2019-03-17T09:13:29.091Z,42.07
2019-03-17T09:15:58.580Z,42.06
2019-03-17T09:18:28.108Z,41.58
2019-03-17T09:20:57.626Z,41.53
2019-03-17T09:23:27.132Z,41.14
2019-03-17T09:25:56.601Z,41.06
2019-03-17T09:28:26.088Z,40.72
2019-03-17T09:30:55.614Z,39.93
2019-03-17T09:33:25.135Z,39.66
2019-03-17T09:35:54.619Z,39.17
2019-03-17T09:38:24.120Z,39.09
2019-03-17T09:40:54.016Z,38.80
2019-03-17T09:43:23.501Z,38.62
2019-03-17T09:45:53.024Z,38.31
2019-03-17T09:48:22.512Z,36.26
2019-03-17T09:50:52.013Z,34.43
2019-03-17T09:53:21.504Z,32.17
2019-03-17T09:55:51.016Z,31.66
2019-03-17T09:58:20.504Z,31.70
2019-03-17T10:00:50.117Z,31.26
2019-03-17T10:03:19.605Z,30.78
2019-03-17T10:05:49.602Z,30.83
2019-03-17T10:08:19.341Z,30.67
2019-03-17T10:10:48.838Z,30.17
2019-03-17T10:13:18.386Z,30.11
2019-03-17T10:15:47.953Z,30.44
2019-03-17T10:18:17.514Z,30.26
2019-03-17T10:20:46.970Z,29.87
2019-03-17T10:23:16.645Z,29.32
2019-03-17T10:25:46.144Z,29.74
2019-03-17T10:28:15.592Z,29.38
2019-03-17T10:30:45.088Z,29.78
2019-03-17T10:33:14.627Z,29.89
2019-03-17T10:35:44.209Z,29.48
2019-03-17T10:38:13.792Z,29.18
2019-03-17T10:40:43.318Z,29.37
2019-03-17T10:43:12.785Z,29.07
2019-03-17T10:45:42.293Z,28.75
2019-03-17T10:48:11.827Z,28.85
2019-03-17T10:50:49.596Z,29.17
2019-03-17T10:53:12.573Z,29.11
2019-03-17T10:55:42.069Z,29.56
2019-03-17T10:58:11.549Z,29.35
2019-03-17T11:00:41.002Z,29.22
2019-03-17T11:03:10.572Z,29.07
2019-03-17T11:05:40.012Z,28.90
2019-03-17T11:08:09.574Z,28.80
2019-03-17T11:10:39.039Z,28.73
2019-03-17T11:13:08.573Z,28.63
2019-03-17T11:15:38.085Z,28.88
2019-03-17T11:18:07.586Z,28.45
2019-03-17T11:20:37.056Z,28.29
2019-03-17T11:23:06.646Z,28.19
2019-03-17T11:25:36.098Z,27.75
2019-03-17T11:28:05.627Z,28.06
2019-03-17T11:30:35.147Z,28.38
2019-03-17T11:33:04.567Z,28.60
2019-03-17T11:35:34.045Z,28.75
2019-03-17T11:38:03.548Z,28.75
2019-03-17T11:40:33.041Z,29.16
2019-03-17T11:43:02.610Z,28.84
2019-03-17T11:45:32.172Z,28.77
2019-03-17T11:48:01.769Z,28.40
2019-03-17T11:50:31.250Z,28.42
2019-03-17T11:53:00.741Z,28.63
2019-03-17T11:55:31.834Z,28.44
2019-03-17T11:58:01.465Z,28.32
2019-03-17T12:00:31.029Z,27.99
2019-03-17T12:03:00.532Z,27.68
2019-03-17T12:05:30.044Z,27.11
2019-03-17T12:07:59.502Z,27.31
2019-03-17T12:10:29.042Z,27.45
2019-03-17T12:12:58.511Z,27.29
2019-03-17T12:15:28.061Z,27.10
2019-03-17T12:17:57.555Z,27.39
2019-03-17T12:20:27.017Z,26.92
2019-03-17T12:22:56.636Z,26.67
2019-03-17T12:25:26.129Z,26.79
2019-03-17T12:27:55.733Z,26.51
2019-03-17T12:30:25.359Z,25.99
2019-03-17T12:32:55.246Z,26.00
2019-03-17T12:35:24.851Z,26.03
2019-03-17T12:37:54.487Z,26.00
2019-03-17T12:40:23.982Z,25.84
2019-03-17T12:42:53.474Z,25.65
2019-03-17T12:45:22.941Z,25.56
2019-03-17T12:47:52.483Z,25.55
2019-03-17T12:50:21.973Z,25.41
2019-03-17T12:52:51.468Z,25.64
2019-03-17T12:55:20.945Z,25.98
2019-03-17T12:57:50.420Z,25.23
2019-03-17T13:00:19.972Z,25.18
2019-03-17T13:02:49.428Z,25.15
2019-03-17T13:05:19.036Z,25.34
2019-03-17T13:07:48.608Z,25.03
2019-03-17T13:10:18.074Z,25.08
2019-03-17T13:12:47.572Z,25.33
2019-03-17T13:15:17.183Z,25.27
2019-03-17T13:17:46.702Z,25.30
2019-03-17T13:20:16.358Z,25.07
2019-03-17T13:22:45.839Z,25.19
2019-03-17T13:25:15.461Z,25.14
2019-03-17T13:27:44.932Z,25.02
2019-03-17T13:30:14.592Z,25.06
2019-03-17T13:32:44.215Z,25.01
2019-03-17T13:35:13.794Z,24.72
2019-03-17T13:37:43.316Z,24.93
2019-03-17T13:40:13.175Z,24.75
2019-03-17T13:42:42.735Z,24.70
2019-03-17T13:45:12.345Z,24.68
2019-03-17T13:47:41.857Z,24.64
2019-03-17T13:50:13.258Z,24.40
2019-03-17T13:52:42.756Z,24.22
2019-03-17T13:55:12.392Z,24.05
2019-03-17T13:57:42.797Z,24.38
2019-03-17T14:00:14.637Z,24.26
2019-03-17T14:02:44.166Z,24.08
2019-03-17T14:05:14.574Z,24.26
2019-03-17T14:07:44.126Z,24.39
2019-03-17T14:10:15.234Z,24.46
2019-03-17T14:12:44.791Z,23.75
2019-03-17T14:15:14.783Z,23.89
2019-03-17T14:17:44.382Z,23.98
2019-03-17T14:20:15.815Z,23.56
2019-03-17T14:22:45.335Z,23.70
2019-03-17T14:25:17.400Z,23.84
2019-03-17T14:27:46.884Z,23.61
2019-03-17T14:30:16.710Z,23.05
2019-03-17T14:32:46.211Z,22.96
2019-03-17T14:35:15.761Z,23.05
2019-03-17T14:37:45.306Z,23.14
2019-03-17T14:40:15.129Z,23.28
2019-03-17T14:42:44.980Z,23.25
2019-03-17T14:45:15.247Z,23.25
2019-03-17T14:47:44.801Z,23.28
2019-03-17T14:50:16.246Z,22.72
2019-03-17T14:52:45.754Z,22.68
2019-03-17T14:55:15.335Z,22.55
2019-03-17T14:57:44.889Z,22.63
2019-03-17T15:00:16.522Z,22.43
2019-03-17T15:02:46.154Z,22.42
2019-03-17T15:05:15.735Z,22.69
2019-03-17T15:07:45.295Z,22.68
2019-03-17T15:10:16.285Z,22.55
2019-03-17T15:12:45.969Z,22.64
2019-03-17T15:15:16.215Z,22.65
2019-03-17T15:17:45.797Z,22.71
2019-03-17T15:20:16.833Z,22.41
2019-03-17T15:22:46.481Z,22.51
2019-03-17T15:25:16.027Z,22.57
2019-03-17T15:27:45.514Z,22.65
2019-03-17T15:30:19.922Z,22.55
2019-03-17T15:32:49.430Z,22.57
2019-03-17T15:35:19.083Z,20.97
2019-03-17T15:37:48.703Z,20.13
2019-03-17T15:40:18.267Z,19.75
2019-03-17T15:42:47.837Z,19.85
2019-03-17T15:45:17.359Z,19.70
2019-03-17T15:47:47.108Z,19.34
2019-03-17T15:50:17.686Z,19.41
2019-03-17T15:52:47.332Z,19.59
2019-03-17T15:55:16.948Z,19.40
2019-03-17T15:57:47.072Z,19.59
2019-03-17T16:00:24.833Z,19.54
2019-03-17T16:02:49.679Z,19.61
2019-03-17T16:05:19.287Z,19.68
2019-03-17T16:07:48.799Z,19.87
2019-03-17T16:10:19.512Z,20.03
2019-03-17T16:12:49.066Z,20.28
2019-03-17T16:15:18.759Z,20.46
2019-03-17T16:17:50.118Z,20.76
2019-03-17T16:20:20.261Z,21.09
2019-03-17T16:22:49.887Z,21.37
2019-03-17T16:25:19.684Z,21.91
2019-03-17T16:27:49.256Z,22.25
2019-03-17T16:30:20.632Z,22.69
2019-03-17T16:32:50.160Z,23.09
2019-03-17T16:35:19.939Z,23.44
2019-03-17T16:37:49.455Z,23.91
2019-03-17T16:40:20.977Z,24.19
2019-03-17T16:42:53.551Z,24.37
2019-03-17T16:45:22.655Z,24.88
2019-03-17T16:47:52.318Z,25.17
2019-03-17T16:50:22.238Z,25.45
2019-03-17T16:52:52.227Z,25.85
2019-03-17T16:55:21.769Z,26.44
2019-03-17T16:57:52.325Z,26.80
2019-03-17T17:00:23.914Z,26.70
2019-03-17T17:02:53.735Z,26.74
2019-03-17T17:05:23.432Z,26.79
2019-03-17T17:07:53.497Z,27.53
2019-03-17T17:10:23.131Z,27.51
2019-03-17T17:12:52.724Z,27.47
2019-03-17T17:15:25.506Z,27.15
2019-03-17T17:17:55.069Z,27.17
2019-03-17T17:20:26.000Z,27.21
2019-03-17T17:22:55.906Z,27.31
2019-03-17T17:25:25.542Z,27.42
2019-03-17T17:27:55.093Z,27.51
2019-03-17T17:30:24.692Z,27.86
2019-03-17T17:32:54.271Z,28.19
2019-03-17T17:35:23.767Z,28.17
2019-03-17T17:37:53.369Z,28.24
2019-03-17T17:40:22.903Z,28.32
2019-03-17T17:42:52.453Z,28.55
2019-03-17T17:45:21.996Z,29.07
2019-03-17T17:47:51.547Z,29.25
2019-03-17T17:50:21.137Z,29.47
2019-03-17T17:52:50.634Z,29.77
2019-03-17T17:55:20.219Z,30.03
2019-03-17T17:57:52.599Z,30.44
2019-03-17T18:00:22.001Z,30.74
2019-03-17T18:02:51.502Z,30.84
2019-03-17T18:05:21.100Z,31.01
2019-03-17T18:07:50.680Z,31.19
2019-03-17T18:10:20.265Z,31.34
2019-03-17T18:12:49.782Z,31.44
2019-03-17T18:15:21.076Z,31.41
2019-03-17T18:17:50.644Z,31.37
2019-03-17T18:20:20.223Z,31.68
2019-03-17T18:22:49.958Z,32.21
2019-03-17T18:25:19.679Z,32.15
2019-03-17T18:27:54.105Z,32.72
2019-03-17T18:30:23.602Z,33.00
2019-03-17T18:32:53.602Z,33.12
2019-03-17T18:35:23.346Z,33.34
2019-03-17T18:37:52.984Z,33.00
2019-03-17T18:40:22.505Z,32.96
2019-03-17T18:42:52.020Z,32.88
2019-03-17T18:45:22.340Z,34.02
2019-03-17T18:47:51.863Z,34.29
2019-03-17T18:50:21.521Z,34.23
2019-03-17T18:52:51.069Z,34.25
2019-03-17T18:55:20.580Z,34.18
2019-03-17T18:57:50.146Z,34.14
2019-03-17T19:00:20.091Z,34.31
2019-03-17T19:02:49.699Z,34.47
2019-03-17T19:05:20.389Z,34.92
2019-03-17T19:07:50.118Z,34.87
2019-03-17T19:10:19.650Z,35.31
2019-03-17T19:12:49.257Z,35.13
2019-03-17T19:15:18.755Z,35.21
2019-03-17T19:17:48.386Z,35.12
2019-03-17T19:20:18.199Z,35.30
2019-03-17T19:22:47.684Z,35.47
2019-03-17T19:25:17.178Z,36.22
2019-03-17T19:27:46.679Z,35.81
2019-03-17T19:30:17.281Z,36.47
2019-03-17T19:32:47.232Z,36.03
2019-03-17T19:35:16.921Z,35.71
2019-03-17T19:37:46.440Z,36.74
2019-03-17T19:40:16.071Z,37.14
2019-03-17T19:42:57.450Z,36.63
2019-03-17T19:45:16.848Z,36.75
2019-03-17T19:47:46.391Z,37.09
2019-03-17T19:50:15.961Z,37.19
2019-03-17T19:52:45.449Z,36.36
2019-03-17T19:55:15.000Z,35.48
2019-03-17T19:57:44.503Z,36.16
2019-03-17T20:00:15.869Z,36.08
2019-03-17T20:02:47.413Z,36.25
2019-03-17T20:05:16.840Z,36.64
2019-03-17T20:07:46.366Z,36.76
2019-03-17T20:10:18.497Z,37.08
2019-03-17T20:12:48.019Z,37.17
2019-03-17T20:15:17.590Z,37.43
2019-03-17T20:17:47.131Z,37.29
2019-03-17T20:20:16.643Z,37.45
2019-03-17T20:22:46.156Z,37.45
2019-03-17T20:25:15.702Z,37.40
2019-03-17T20:27:45.223Z,37.37
2019-03-17T20:30:14.751Z,37.92
2019-03-17T20:32:44.259Z,38.85
2019-03-17T20:35:13.800Z,38.94
2019-03-17T20:37:43.479Z,38.67
2019-03-17T20:40:12.977Z,39.37
2019-03-17T20:42:42.500Z,39.46
2019-03-17T20:45:13.856Z,39.28
2019-03-17T20:47:43.815Z,39.94
2019-03-17T20:50:13.364Z,40.62
2019-03-17T20:52:42.884Z,40.47
2019-03-17T20:55:12.548Z,40.87
2019-03-17T20:57:42.109Z,40.79
2019-03-17T21:00:13.826Z,40.49
2019-03-17T21:02:43.430Z,40.65
2019-03-17T21:05:12.938Z,40.88
2019-03-17T21:07:42.843Z,41.00
2019-03-17T21:10:12.639Z,40.93
2019-03-17T21:12:42.181Z,41.66
2019-03-17T21:15:14.724Z,40.81
2019-03-17T21:17:44.257Z,40.22
2019-03-17T21:20:14.610Z,41.24
2019-03-17T21:22:44.104Z,40.81
2019-03-17T21:25:13.923Z,40.30
2019-03-17T21:27:43.561Z,40.93
2019-03-17T21:30:15.566Z,41.30
2019-03-17T21:32:45.053Z,41.07
2019-03-17T21:35:14.608Z,40.47
2019-03-17T21:37:44.141Z,40.41
2019-03-17T21:40:13.682Z,40.66
2019-03-17T21:42:43.218Z,41.87
2019-03-17T21:45:12.761Z,42.71
2019-03-17T21:47:42.281Z,42.35
2019-03-17T21:50:13.682Z,42.71
2019-03-17T21:52:43.198Z,43.22
2019-03-17T21:55:13.055Z,42.87
2019-03-17T21:57:42.613Z,42.92
2019-03-17T22:00:14.234Z,43.23
2019-03-17T22:02:43.760Z,43.39
2019-03-17T22:05:13.529Z,43.37
2019-03-17T22:07:49.515Z,43.61
2019-03-17T22:10:14.353Z,43.94
2019-03-17T22:12:43.874Z,43.80
2019-03-17T22:15:13.422Z,43.87
2019-03-17T22:17:43.063Z,43.82
2019-03-17T22:20:12.946Z,43.79
2019-03-17T22:22:42.551Z,43.98
2019-03-17T22:25:12.167Z,44.24
2019-03-17T22:27:41.653Z,44.26
2019-03-17T22:30:12.432Z,44.31
2019-03-17T22:32:41.900Z,44.69
2019-03-17T22:35:11.609Z,44.95
2019-03-17T22:37:41.152Z,45.14
2019-03-17T22:40:11.886Z,45.66
2019-03-17T22:42:41.402Z,45.71
2019-03-17T22:45:11.566Z,45.96
2019-03-17T22:47:41.093Z,46.11
2019-03-17T22:50:11.107Z,46.50
2019-03-17T22:52:40.623Z,46.35
2019-03-17T22:55:11.142Z,46.23
2019-03-17T22:57:40.662Z,46.14
2019-03-17T23:00:13.959Z,46.18
2019-03-17T23:02:43.478Z,46.70
2019-03-17T23:05:13.258Z,47.01
2019-03-17T23:07:42.780Z,46.91
2019-03-17T23:10:12.414Z,47.66
2019-03-17T23:12:41.919Z,47.88
2019-03-17T23:15:11.513Z,48.42
2019-03-17T23:17:41.009Z,48.46
2019-03-17T23:20:14.915Z,48.41
2019-03-17T23:22:44.780Z,48.64
2019-03-17T23:25:14.698Z,48.91
2019-03-17T23:27:45.996Z,49.31
2019-03-17T23:30:15.873Z,49.61
2019-03-17T23:32:45.351Z,49.81
2019-03-17T23:35:14.938Z,49.53
2019-03-17T23:37:44.456Z,49.63
2019-03-17T23:40:13.968Z,49.72
2019-03-17T23:42:43.632Z,49.77
2019-03-17T23:45:13.245Z,49.93
2019-03-17T23:47:42.743Z,49.91
2019-03-17T23:50:12.277Z,49.81
2019-03-17T23:52:41.760Z,49.79
2019-03-17T23:55:11.762Z,49.76
2019-03-17T23:57:43.021Z,49.52
